Time;durP1;ratioP1;P1;durP2;ratioP2;P2;SDS_P1;SDS_P2;PMS_P1;PMS_P2;Temp;Humidity;BMP_temperature;BMP_pressure;BME280_temperature;BME280_humidity;BME280_pressure;Samples;Min_cycle;Max_cycle;Signal;HPM_P1;HPM_P2
2022/07/18 00:00:07;;;;;;;5.80;4.70;;;17.60;99.90;;;;;;5034141;28;20676;-66
2022/07/18 00:02:32;;;;;;;7.90;6.67;;;17.60;99.90;;;;;;5033918;28;20176;-66
2022/07/18 00:04:58;;;;;;;8.10;5.00;;;17.60;99.90;;;;;;5033536;28;20176;-66
2022/07/18 00:07:24;;;;;;;5.97;5.30;;;17.60;99.90;;;;;;5033541;28;20253;-66
2022/07/18 00:09:49;;;;;;;5.50;5.10;;;17.60;99.90;;;;;;5033768;28;20196;-66
2022/07/18 00:12:15;;;;;;;5.20;4.80;;;17.50;99.90;;;;;;5033248;28;20683;-66
2022/07/18 00:14:41;;;;;;;5.33;4.93;;;17.50;99.90;;;;;;5033167;28;20164;-66
2022/07/18 00:17:07;;;;;;;9.67;5.37;;;17.50;99.90;;;;;;5034082;28;20534;-66
2022/07/18 00:19:33;;;;;;;5.10;4.70;;;17.40;99.90;;;;;;5033445;28;20188;-66
2022/07/18 00:22:00;;;;;;;6.90;5.30;;;17.40;99.90;;;;;;5033130;28;20229;-66
2022/07/18 00:24:26;;;;;;;4.77;4.37;;;17.40;99.90;;;;;;5033355;28;20233;-66
2022/07/18 00:26:52;;;;;;;5.27;4.87;;;17.40;99.90;;;;;;5033205;28;20183;-66
2022/07/18 00:29:17;;;;;;;5.40;4.90;;;17.40;99.90;;;;;;5033099;28;20535;-66
2022/07/18 00:31:43;;;;;;;5.77;5.00;;;17.40;99.90;;;;;;5033085;28;20679;-66
2022/07/18 00:34:09;;;;;;;8.70;5.10;;;17.40;99.90;;;;;;5032648;28;20179;-66
2022/07/18 00:36:35;;;;;;;5.47;4.97;;;17.40;99.90;;;;;;5033119;28;20255;-66
2022/07/18 00:39:01;;;;;;;5.90;5.40;;;17.40;99.90;;;;;;5033125;28;20215;-66
2022/07/18 00:41:26;;;;;;;5.87;5.43;;;17.40;99.90;;;;;;5033009;28;20191;-66
2022/07/18 00:43:52;;;;;;;6.73;6.13;;;17.40;99.90;;;;;;5032938;28;20314;-66
2022/07/18 00:46:23;;;;;;;6.47;5.93;;;17.40;99.90;;;;;;5033119;28;20219;-66
2022/07/18 00:48:49;;;;;;;6.30;5.30;;;17.40;99.90;;;;;;5033216;28;20195;-66
2022/07/18 00:51:16;;;;;;;5.20;4.80;;;17.40;99.90;;;;;;5032809;28;20203;-66
2022/07/18 00:53:43;;;;;;;6.73;5.60;;;17.30;99.90;;;;;;5032800;28;20321;-66
2022/07/18 00:56:09;;;;;;;4.73;4.43;;;17.30;99.90;;;;;;5032887;28;20282;-66
2022/07/18 00:58:35;;;;;;;5.07;4.77;;;17.30;99.90;;;;;;5032658;28;20199;-66
2022/07/18 01:03:45;;;;;;;6.73;5.13;;;17.30;99.90;;;;;;5032203;28;20191;-66
2022/07/18 01:06:11;;;;;;;5.87;5.37;;;17.20;99.90;;;;;;5032958;28;20171;-66
2022/07/18 01:08:38;;;;;;;6.10;5.50;;;17.20;99.90;;;;;;5032452;28;20672;-66
2022/07/18 01:11:04;;;;;;;7.20;5.50;;;17.20;99.90;;;;;;5032727;28;20329;-66
2022/07/18 01:13:29;;;;;;;8.90;6.33;;;17.10;99.90;;;;;;5032060;28;20194;-66
2022/07/18 01:15:55;;;;;;;7.30;5.97;;;17.10;99.90;;;;;;5032575;28;20665;-66
2022/07/18 01:18:21;;;;;;;7.03;5.77;;;17.10;99.90;;;;;;5032499;28;20195;-66
2022/07/18 01:20:46;;;;;;;9.77;5.73;;;17.00;99.90;;;;;;5032298;28;20242;-66
2022/07/18 01:23:12;;;;;;;7.33;5.47;;;17.00;99.90;;;;;;5031351;28;20641;-66
2022/07/18 01:25:38;;;;;;;8.67;6.97;;;16.90;99.90;;;;;;5031995;28;20254;-66
2022/07/18 01:28:03;;;;;;;7.73;5.57;;;16.90;99.90;;;;;;5032110;28;20214;-66
2022/07/18 01:30:29;;;;;;;7.30;5.97;;;16.80;99.90;;;;;;5032003;28;20283;-66
2022/07/18 01:33:00;;;;;;;11.50;5.50;;;16.80;99.90;;;;;;5031948;28;20182;-66
2022/07/18 01:35:27;;;;;;;9.33;5.60;;;16.80;99.90;;;;;;5033783;28;20258;-66
2022/07/18 01:37:54;;;;;;;5.67;5.17;;;16.70;99.90;;;;;;5033603;28;20274;-65
2022/07/18 01:40:20;;;;;;;7.67;5.33;;;16.70;99.90;;;;;;5033050;28;20254;-65
2022/07/18 01:42:46;;;;;;;10.40;5.40;;;16.70;99.90;;;;;;5031862;28;20748;-66
2022/07/18 01:45:12;;;;;;;5.67;5.07;;;16.70;99.90;;;;;;5030568;28;20183;-66
2022/07/18 01:47:38;;;;;;;7.07;5.30;;;16.70;99.90;;;;;;5031352;28;20175;-66
2022/07/18 01:50:05;;;;;;;5.50;4.87;;;16.70;99.90;;;;;;5031857;28;20294;-66
2022/07/18 01:52:30;;;;;;;5.23;4.73;;;16.80;99.90;;;;;;5031836;28;20206;-66
2022/07/18 01:54:56;;;;;;;7.70;4.97;;;16.80;99.90;;;;;;5031335;28;20207;-66
2022/07/18 01:57:23;;;;;;;5.27;4.87;;;16.70;99.90;;;;;;5031933;28;20175;-66
2022/07/18 01:59:49;;;;;;;6.13;4.97;;;16.80;99.90;;;;;;5031541;28;20699;-66
2022/07/18 02:02:14;;;;;;;5.67;5.17;;;16.80;99.90;;;;;;5031835;28;20164;-66
2022/07/18 02:07:24;;;;;;;5.33;4.70;;;16.80;99.90;;;;;;5031814;28;20720;-66
2022/07/18 02:09:50;;;;;;;5.97;4.80;;;16.80;99.90;;;;;;5031416;28;20199;-65
2022/07/18 02:12:15;;;;;;;5.87;5.43;;;16.80;99.90;;;;;;5031691;28;20199;-66
2022/07/18 02:14:41;;;;;;;4.90;4.50;;;16.80;99.90;;;;;;5031190;28;20167;-66
2022/07/18 02:17:07;;;;;;;5.30;4.80;;;16.80;99.90;;;;;;5031666;28;20170;-66
2022/07/18 02:19:32;;;;;;;5.97;4.80;;;16.80;99.90;;;;;;5031219;28;20275;-66
2022/07/18 02:21:58;;;;;;;5.37;4.60;;;16.70;99.90;;;;;;5031584;28;20671;-70
2022/07/18 02:24:23;;;;;;;5.90;5.40;;;16.70;99.90;;;;;;5032639;28;20184;-70
2022/07/18 02:26:49;;;;;;;5.97;5.37;;;16.60;99.90;;;;;;5032745;28;20253;-67
2022/07/18 02:29:15;;;;;;;5.97;5.27;;;16.60;99.90;;;;;;5032569;28;20585;-69
2022/07/18 02:31:40;;;;;;;4.70;4.40;;;16.60;99.90;;;;;;5031083;28;20195;-70
2022/07/18 02:34:09;;;;;;;5.20;4.70;;;16.60;99.90;;;;;;5032967;28;20226;-71
2022/07/18 02:36:39;;;;;;;5.00;4.60;;;16.60;99.90;;;;;;5039182;28;20187;-70
2022/07/18 02:39:06;;;;;;;5.73;4.93;;;16.50;99.90;;;;;;5038898;28;20207;-71
2022/07/18 02:41:32;;;;;;;5.47;4.63;;;16.50;99.90;;;;;;5039184;28;20657;-70
2022/07/18 02:43:58;;;;;;;4.80;4.50;;;16.50;99.90;;;;;;5038520;28;20189;-68
2022/07/18 02:46:24;;;;;;;5.77;5.27;;;16.50;99.90;;;;;;5039403;28;20221;-69
2022/07/18 02:48:50;;;;;;;7.30;4.67;;;16.50;99.90;;;;;;5038809;28;20285;-69
2022/07/18 02:51:15;;;;;;;5.03;4.63;;;16.50;99.90;;;;;;5039196;28;20195;-68
2022/07/18 02:53:41;;;;;;;5.40;4.87;;;16.60;99.90;;;;;;5039116;28;20225;-69
2022/07/18 02:56:07;;;;;;;6.20;4.90;;;16.60;99.90;;;;;;5037938;28;20179;-69
2022/07/18 02:58:32;;;;;;;6.30;5.30;;;16.60;99.90;;;;;;5038729;28;20227;-70
2022/07/18 03:00:58;;;;;;;4.90;4.50;;;16.60;99.90;;;;;;5038900;28;20263;-70
2022/07/18 03:03:24;;;;;;;5.50;5.00;;;16.60;99.90;;;;;;5038459;28;20186;-69
2022/07/18 03:05:50;;;;;;;5.93;5.30;;;16.60;99.90;;;;;;5037774;28;20183;-70
2022/07/18 03:08:15;;;;;;;5.60;4.93;;;16.60;99.90;;;;;;5038780;28;20195;-69
2022/07/18 03:10:41;;;;;;;7.40;5.10;;;16.60;99.90;;;;;;5038671;28;20282;-69
2022/07/18 03:13:07;;;;;;;5.03;4.63;;;16.60;99.90;;;;;;5038424;28;20645;-71
2022/07/18 03:15:33;;;;;;;5.47;5.07;;;16.50;99.90;;;;;;5038420;28;20260;-70
2022/07/18 03:17:58;;;;;;;5.00;4.60;;;16.50;99.90;;;;;;5038733;28;20696;-69
2022/07/18 03:20:24;;;;;;;5.30;4.90;;;16.50;99.90;;;;;;5038851;28;20263;-71
2022/07/18 03:22:50;;;;;;;6.10;5.13;;;16.40;99.90;;;;;;5038699;28;20179;-70
2022/07/18 03:25:16;;;;;;;5.97;5.33;;;16.40;99.90;;;;;;5038748;28;20210;-70
2022/07/18 03:27:41;;;;;;;6.50;6.00;;;16.40;99.90;;;;;;5038385;28;20179;-71
2022/07/18 03:30:07;;;;;;;5.67;5.13;;;16.40;99.90;;;;;;5038076;28;20186;-70
2022/07/18 03:32:33;;;;;;;6.23;5.60;;;16.30;99.90;;;;;;5038980;28;20178;-72
2022/07/18 03:34:59;;;;;;;6.93;5.93;;;16.30;99.90;;;;;;5038989;28;20167;-71
2022/07/18 03:37:24;;;;;;;8.77;5.60;;;16.30;99.90;;;;;;5038626;28;20206;-69
2022/07/18 03:39:50;;;;;;;5.47;4.90;;;16.30;99.90;;;;;;5037408;28;20246;-67
2022/07/18 03:42:15;;;;;;;6.00;5.40;;;16.20;99.90;;;;;;5037479;28;20266;-67
2022/07/18 03:44:41;;;;;;;7.27;5.20;;;16.20;99.90;;;;;;5036960;28;20179;-67
2022/07/18 03:47:07;;;;;;;6.30;5.57;;;16.20;99.90;;;;;;5034048;28;20187;-66
2022/07/18 03:49:32;;;;;;;8.87;5.80;;;16.20;99.90;;;;;;5034058;28;20191;-67
2022/07/18 03:51:58;;;;;;;6.20;5.70;;;16.20;99.90;;;;;;5034193;28;20529;-66
2022/07/18 03:54:24;;;;;;;6.20;5.50;;;16.20;99.90;;;;;;5033911;28;20167;-67
2022/07/18 03:56:50;;;;;;;11.87;5.87;;;16.20;99.90;;;;;;5033851;28;20168;-66
2022/07/18 03:59:16;;;;;;;7.53;6.93;;;16.20;99.90;;;;;;5034093;28;20263;-67
2022/07/18 04:01:41;;;;;;;7.60;7.00;;;16.20;99.90;;;;;;5033881;28;20803;-67
2022/07/18 04:04:07;;;;;;;6.93;6.33;;;16.20;99.90;;;;;;5033305;28;20414;-67
2022/07/18 04:06:32;;;;;;;7.60;6.87;;;16.20;99.90;;;;;;5034015;28;20278;-67
2022/07/18 04:08:58;;;;;;;7.77;7.17;;;16.20;99.90;;;;;;5033534;28;20200;-67
2022/07/18 04:11:24;;;;;;;7.73;7.07;;;16.30;99.90;;;;;;5033645;28;20207;-67
2022/07/18 04:13:53;;;;;;;7.50;6.77;;;16.30;99.90;;;;;;5033362;28;20229;-67
2022/07/18 04:16:19;;;;;;;8.20;7.50;;;16.30;99.90;;;;;;5033553;28;20671;-67
2022/07/18 04:18:45;;;;;;;7.77;7.27;;;16.30;99.90;;;;;;5033415;28;20195;-67
2022/07/18 04:21:11;;;;;;;8.63;7.70;;;16.40;99.90;;;;;;5033932;28;20175;-67
2022/07/18 04:23:36;;;;;;;7.10;6.43;;;16.30;99.90;;;;;;5033103;28;20202;-67
2022/07/18 04:26:03;;;;;;;6.07;5.67;;;16.40;99.90;;;;;;5033588;28;20688;-67
2022/07/18 04:28:30;;;;;;;12.10;6.23;;;16.40;99.90;;;;;;5033340;28;20686;-67
2022/07/18 04:30:55;;;;;;;6.47;5.87;;;16.50;99.90;;;;;;5032259;28;20570;-67
2022/07/18 04:33:21;;;;;;;6.20;5.60;;;16.50;99.90;;;;;;5033273;28;20168;-67
2022/07/18 04:35:48;;;;;;;7.60;5.77;;;16.60;99.90;;;;;;5012012;28;20176;-67
2022/07/18 04:38:14;;;;;;;6.63;5.30;;;16.60;99.90;;;;;;5018176;28;20214;-66
2022/07/18 04:40:40;;;;;;;6.27;5.77;;;16.60;99.90;;;;;;5033261;28;20171;-66
2022/07/18 04:43:06;;;;;;;8.40;6.10;;;16.70;99.90;;;;;;5033127;28;20184;-66
2022/07/18 04:45:32;;;;;;;6.10;5.67;;;16.90;99.90;;;;;;5032878;28;20175;-67
2022/07/18 04:47:58;;;;;;;7.83;6.60;;;17.00;99.90;;;;;;5032869;28;20179;-67
2022/07/18 04:50:24;;;;;;;6.23;5.63;;;17.10;99.90;;;;;;5033103;28;20199;-67
2022/07/18 04:52:51;;;;;;;6.60;6.10;;;17.20;99.90;;;;;;5032923;28;20164;-66
2022/07/18 04:55:19;;;;;;;5.80;5.40;;;17.30;99.90;;;;;;5032650;28;20695;-67
2022/07/18 04:57:45;;;;;;;6.47;5.97;;;17.50;99.90;;;;;;5032579;28;20275;-67
2022/07/18 05:00:21;;;;;;;5.67;5.10;;;17.70;99.90;;;;;;5032847;28;20258;-67
2022/07/18 05:02:49;;;;;;;12.70;6.97;;;17.90;99.90;;;;;;5032777;28;20179;-66
2022/07/18 05:05:16;;;;;;;6.10;5.70;;;18.20;99.90;;;;;;5032688;28;20175;-67
2022/07/18 05:07:42;;;;;;;6.03;5.23;;;18.40;99.90;;;;;;5032259;28;20179;-66
2022/07/18 05:10:10;;;;;;;7.10;6.50;;;18.70;99.90;;;;;;5032872;28;20198;-66
2022/07/18 05:12:36;;;;;;;5.30;4.80;;;18.90;99.90;;;;;;5032811;28;20187;-67
2022/07/18 05:15:05;;;;;;;7.13;4.80;;;19.10;99.90;;;;;;5032250;28;20184;-67
2022/07/18 05:17:31;;;;;;;5.87;4.70;;;19.20;99.90;;;;;;5032205;28;20180;-66
2022/07/18 05:19:57;;;;;;;5.53;5.03;;;19.30;99.90;;;;;;5032464;28;20192;-67
2022/07/18 05:22:23;;;;;;;5.83;5.37;;;19.30;99.90;;;;;;5032393;28;20672;-67
2022/07/18 05:24:50;;;;;;;6.93;6.30;;;19.30;99.90;;;;;;5030884;28;20545;-66
2022/07/18 05:27:16;;;;;;;7.77;7.37;;;19.40;99.90;;;;;;5032256;28;20546;-67
2022/07/18 05:29:41;;;;;;;8.20;7.60;;;19.50;99.90;;;;;;5030077;28;20222;-67
2022/07/18 05:32:07;;;;;;;9.10;8.43;;;19.50;99.90;;;;;;5032085;28;20301;-66
2022/07/18 05:34:33;;;;;;;10.77;6.03;;;19.50;99.90;;;;;;5031731;28;20670;-67
2022/07/18 05:36:59;;;;;;;6.50;6.00;;;19.50;99.90;;;;;;5032285;28;20535;-67
2022/07/18 05:39:25;;;;;;;5.20;4.70;;;19.50;99.90;;;;;;5031994;28;20210;-66
2022/07/18 05:41:52;;;;;;;5.50;5.20;;;19.50;99.90;;;;;;5031961;28;20179;-66
2022/07/18 05:44:19;;;;;;;5.60;5.20;;;19.40;99.90;;;;;;5031656;28;20266;-66
2022/07/18 05:46:46;;;;;;;7.13;5.03;;;19.50;99.90;;;;;;5032085;28;20266;-67
2022/07/18 05:49:12;;;;;;;4.17;3.93;;;19.60;99.90;;;;;;5031870;28;20667;-66
2022/07/18 05:51:38;;;;;;;4.60;4.20;;;19.80;99.90;;;;;;5031744;28;20207;-66
2022/07/18 05:54:03;;;;;;;4.90;4.50;;;20.00;99.90;;;;;;5031564;28;20266;-67
2022/07/18 05:56:29;;;;;;;6.77;4.30;;;20.30;99.90;;;;;;5031782;28;20183;-66
2022/07/18 05:58:54;;;;;;;4.23;4.03;;;20.70;99.90;;;;;;5031743;28;20191;-66
2022/07/18 06:01:20;;;;;;;4.90;3.88;;;21.10;99.90;;;;;;5031763;28;20611;-66
2022/07/18 06:03:47;;;;;;;4.65;4.25;;;21.40;99.90;;;;;;5029336;28;20195;-67
2022/07/18 06:06:13;;;;;;;5.65;4.15;;;21.60;99.90;;;;;;5031910;28;20197;-66
2022/07/18 06:08:39;;;;;;;4.73;4.33;;;21.80;99.90;;;;;;5031230;28;20206;-66
2022/07/18 06:11:07;;;;;;;4.30;3.90;;;21.90;99.90;;;;;;5030922;28;20207;-67
2022/07/18 06:13:34;;;;;;;4.13;3.83;;;22.00;99.90;;;;;;5030972;28;20179;-67
2022/07/18 06:15:59;;;;;;;4.25;3.60;;;22.20;99.90;;;;;;5031341;28;20167;-66
2022/07/18 06:18:25;;;;;;;4.05;3.65;;;22.30;99.90;;;;;;5031165;28;20214;-66
2022/07/18 06:20:51;;;;;;;8.63;3.72;;;22.50;99.90;;;;;;5030119;28;20270;-66
2022/07/18 06:23:17;;;;;;;3.65;3.30;;;22.40;99.90;;;;;;5031400;28;20327;-66
2022/07/18 06:25:43;;;;;;;3.50;3.30;;;22.60;99.90;;;;;;5031015;28;20755;-66
2022/07/18 06:28:08;;;;;;;3.72;3.53;;;22.60;99.90;;;;;;5031126;28;20207;-67
2022/07/18 06:30:34;;;;;;;6.07;3.60;;;22.80;99.90;;;;;;5030119;28;20696;-67
2022/07/18 06:33:03;;;;;;;4.82;3.80;;;22.90;99.90;;;;;;5031121;28;20190;-67
2022/07/18 06:35:29;;;;;;;4.25;3.85;;;23.00;99.90;;;;;;5031139;28;20263;-66
2022/07/18 06:37:54;;;;;;;5.10;3.60;;;23.00;99.90;;;;;;5030743;28;20604;-65
2022/07/18 06:40:20;;;;;;;5.07;3.85;;;23.10;99.90;;;;;;5031242;28;20262;-66
2022/07/18 06:42:45;;;;;;;4.28;3.42;;;23.40;99.90;;;;;;5031230;28;20175;-67
2022/07/18 06:45:11;;;;;;;4.22;3.65;;;23.70;99.90;;;;;;5030931;28;20226;-67
2022/07/18 06:47:37;;;;;;;6.60;3.33;;;24.00;99.90;;;;;;5031112;28;20526;-66
2022/07/18 06:50:03;;;;;;;3.88;3.58;;;24.20;99.90;;;;;;5031086;28;20249;-66
2022/07/18 06:52:28;;;;;;;5.05;3.80;;;24.30;99.90;;;;;;5031064;28;20203;-66
2022/07/18 06:54:54;;;;;;;3.95;3.55;;;24.40;99.90;;;;;;5030834;28;20229;-66
2022/07/18 06:57:20;;;;;;;3.88;3.58;;;24.60;99.90;;;;;;5030920;28;20175;-65
2022/07/18 06:59:45;;;;;;;4.03;3.70;;;24.90;99.90;;;;;;5030612;28;20203;-66
2022/07/18 07:02:11;;;;;;;5.22;3.67;;;25.10;99.90;;;;;;5031327;28;20616;-66
2022/07/18 07:04:36;;;;;;;3.95;3.42;;;25.40;99.90;;;;;;5030571;28;20183;-67
2022/07/18 07:07:02;;;;;;;5.80;3.40;;;25.60;99.90;;;;;;5030978;28;20175;-66
2022/07/18 07:09:28;;;;;;;5.75;3.70;;;25.50;99.90;;;;;;5030876;28;20202;-66
2022/07/18 07:11:53;;;;;;;3.38;3.08;;;25.70;99.90;;;;;;5030942;28;20246;-66
2022/07/18 07:14:19;;;;;;;4.63;3.38;;;25.90;99.90;;;;;;5030547;28;20221;-66
2022/07/18 07:16:44;;;;;;;3.13;2.92;;;26.20;99.90;;;;;;5031206;28;20170;-66
2022/07/18 07:19:10;;;;;;;5.95;3.80;;;26.40;99.90;;;;;;5030687;28;20196;-64
2022/07/18 07:21:36;;;;;;;5.38;3.20;;;26.50;99.90;;;;;;5031681;28;20175;-65
2022/07/18 07:24:01;;;;;;;3.65;3.45;;;26.40;99.90;;;;;;5034122;28;20187;-64
2022/07/18 07:26:27;;;;;;;4.30;3.35;;;26.50;99.90;;;;;;5034421;28;20736;-64
2022/07/18 07:28:52;;;;;;;7.53;4.07;;;26.80;99.90;;;;;;5034555;28;20195;-66
2022/07/18 07:31:18;;;;;;;5.90;3.35;;;27.00;99.90;;;;;;5034182;28;20222;-65
2022/07/18 07:33:44;;;;;;;5.65;3.13;;;27.40;99.90;;;;;;5033983;28;20194;-64
2022/07/18 07:36:10;;;;;;;4.13;3.25;;;27.70;99.90;;;;;;5034443;28;20167;-64
2022/07/18 07:38:36;;;;;;;3.58;3.28;;;27.90;99.90;;;;;;5034238;28;20285;-64
2022/07/18 07:41:02;;;;;;;4.18;3.22;;;28.00;99.90;;;;;;5034527;28;20171;-64
2022/07/18 07:43:27;;;;;;;3.53;3.22;;;27.80;99.90;;;;;;5034185;28;20218;-66
2022/07/18 07:45:55;;;;;;;6.13;3.60;;;27.70;99.90;;;;;;5033705;28;20296;-64
2022/07/18 07:48:22;;;;;;;4.57;3.85;;;27.70;99.90;;;;;;5033958;28;20680;-66
2022/07/18 07:50:48;;;;;;;3.58;3.28;;;27.80;99.90;;;;;;5032698;28;20290;-67
2022/07/18 07:53:13;;;;;;;3.25;3.00;;;27.70;99.90;;;;;;5033054;28;20246;-63
2022/07/18 07:55:39;;;;;;;5.68;2.90;;;27.90;99.90;;;;;;5033956;28;20171;-66
2022/07/18 07:58:05;;;;;;;4.57;3.25;;;28.10;99.90;;;;;;5033788;28;20249;-67
2022/07/18 08:00:30;;;;;;;3.47;3.28;;;28.30;99.90;;;;;;5034181;28;20182;-66
2022/07/18 08:02:59;;;;;;;3.78;3.47;;;28.50;99.90;;;;;;5033576;28;20318;-66
2022/07/18 08:05:26;;;;;;;4.90;2.80;;;28.90;99.90;;;;;;5033858;28;20199;-66
2022/07/18 08:07:52;;;;;;;4.35;3.10;;;29.20;99.90;;;;;;5033194;28;20712;-65
2022/07/18 08:10:18;;;;;;;4.43;2.70;;;29.50;99.90;;;;;;5033794;28;20257;-65
2022/07/18 08:12:44;;;;;;;3.42;3.13;;;29.70;99.90;;;;;;5032304;28;20187;-66
2022/07/18 08:15:10;;;;;;;4.88;3.35;;;30.00;99.90;;;;;;5031477;28;20172;-66
2022/07/18 08:17:36;;;;;;;4.28;3.00;;;30.00;99.90;;;;;;5033463;28;20645;-67
2022/07/18 08:20:02;;;;;;;4.88;2.95;;;30.30;99.90;;;;;;5048630;28;20260;-66
2022/07/18 08:22:28;;;;;;;3.38;2.97;;;30.20;99.90;;;;;;5033491;28;20183;-66
2022/07/18 08:24:54;;;;;;;3.90;3.20;;;30.60;99.90;;;;;;5033115;28;20262;-67
2022/07/18 08:27:20;;;;;;;5.55;3.10;;;30.90;99.90;;;;;;5033505;28;20262;-66
2022/07/18 08:29:45;;;;;;;8.13;3.13;;;31.20;99.90;;;;;;5032299;28;20199;-66
2022/07/18 08:32:11;;;;;;;4.55;2.97;;;31.50;99.90;;;;;;5032797;28;20209;-66
2022/07/18 08:34:36;;;;;;;3.20;2.90;;;31.50;99.90;;;;;;5033200;28;20172;-66
2022/07/18 08:37:02;;;;;;;4.90;2.88;;;31.60;99.90;;;;;;5033064;28;20185;-67
2022/07/18 08:39:28;;;;;;;3.85;2.80;;;31.80;99.90;;;;;;5033105;28;20273;-66
2022/07/18 08:41:55;;;;;;;7.43;3.33;;;32.10;99.90;;;;;;5032687;28;20180;-66
2022/07/18 08:44:21;;;;;;;6.28;3.42;;;32.20;99.90;;;;;;5032957;28;20182;-67
2022/07/18 08:46:51;;;;;;;4.72;2.83;;;32.40;99.90;;;;;;5030716;28;20196;-66
2022/07/18 08:49:17;;;;;;;3.10;2.90;;;32.50;99.40;;;;;;5033141;28;20206;-66
2022/07/18 08:51:43;;;;;;;8.48;3.03;;;32.60;98.80;;;;;;5032473;28;20341;-66
2022/07/18 08:54:10;;;;;;;3.08;2.88;;;32.70;98.90;;;;;;5032537;28;20176;-66
2022/07/18 08:56:35;;;;;;;11.20;2.75;;;32.90;98.10;;;;;;5032846;28;20220;-66
2022/07/18 08:59:03;;;;;;;6.53;2.95;;;32.90;98.60;;;;;;5032932;28;20615;-66
2022/07/18 09:01:31;;;;;;;3.45;3.20;;;32.90;98.30;;;;;;5032793;28;20284;-65
2022/07/18 09:04:16;;;;;;;4.45;2.92;;;32.70;99.00;;;;;;5032208;28;20186;-66
2022/07/18 09:06:49;;;;;;;4.22;2.95;;;32.80;97.50;;;;;;5032646;28;20262;-66
2022/07/18 09:09:17;;;;;;;4.95;3.53;;;33.10;97.40;;;;;;5032268;28;20226;-66
2022/07/18 09:12:08;;;;;;;8.15;2.80;;;33.50;96.50;;;;;;5032360;28;20219;-65
2022/07/18 09:14:44;;;;;;;3.92;2.90;;;33.80;95.10;;;;;;5032132;28;20179;-66
2022/07/18 09:17:18;;;;;;;6.90;3.10;;;34.00;95.10;;;;;;5032459;28;20262;-66
2022/07/18 09:20:00;;;;;;;4.90;2.67;;;34.30;94.60;;;;;;5029980;28;20199;-63
2022/07/18 09:22:28;;;;;;;3.33;3.00;;;34.50;93.90;;;;;;5032529;28;20180;-66
2022/07/18 09:25:00;;;;;;;3.50;2.60;;;34.50;92.00;;;;;;5031853;28;20562;-66
2022/07/18 09:27:29;;;;;;;4.30;2.83;;;34.50;93.10;;;;;;5032604;28;20175;-65
2022/07/18 09:30:16;;;;;;;5.63;3.25;;;34.80;92.80;;;;;;5030938;28;20195;-66
2022/07/18 09:32:43;;;;;;;2.50;2.30;;;35.20;91.60;;;;;;5032287;28;20219;-66
2022/07/18 09:35:15;;;;;;;7.00;2.95;;;35.20;87.70;;;;;;5031928;28;20185;-65
2022/07/18 09:37:58;;;;;;;3.90;2.70;;;35.40;91.00;;;;;;5032002;28;20176;-66
2022/07/18 09:40:27;;;;;;;4.68;2.53;;;35.50;90.50;;;;;;5031862;28;20182;-66
2022/07/18 09:42:57;;;;;;;5.93;2.90;;;35.60;89.90;;;;;;5032038;28;20214;-66
2022/07/18 09:45:28;;;;;;;3.90;2.50;;;35.80;87.60;;;;;;5030918;28;20652;-64
2022/07/18 09:47:59;;;;;;;4.53;2.58;;;36.30;86.40;;;;;;5031905;28;20171;-64
2022/07/18 09:50:28;;;;;;;6.80;2.75;;;36.60;81.90;;;;;;5031729;28;20544;-64
2022/07/18 09:53:03;;;;;;;5.93;2.33;;;37.00;82.00;;;;;;5031154;28;20229;-65
2022/07/18 09:55:29;;;;;;;2.50;2.30;;;37.50;77.30;;;;;;5031354;28;20174;-65
2022/07/18 09:58:15;;;;;;;5.00;2.47;;;37.60;69.20;;;;;;5031504;28;20199;-64
2022/07/18 10:00:41;;;;;;;2.90;2.60;;;37.40;65.90;;;;;;5012032;28;20180;-64
2022/07/18 10:03:08;;;;;;;6.15;2.65;;;37.30;65.00;;;;;;5012205;28;20225;-65
2022/07/18 10:05:38;;;;;;;6.68;2.25;;;37.30;66.50;;;;;;5030485;28;20179;-65
2022/07/18 10:08:11;;;;;;;5.22;2.35;;;37.50;69.40;;;;;;5031265;28;20203;-64
2022/07/18 10:10:39;;;;;;;7.03;2.47;;;37.60;67.90;;;;;;5031932;28;20218;-65
2022/07/18 10:13:06;;;;;;;3.72;2.83;;;37.70;68.30;;;;;;5031393;28;20570;-64
2022/07/18 10:15:40;;;;;;;5.25;2.70;;;37.70;68.70;;;;;;5031467;28;20641;-65
2022/07/18 10:18:08;;;;;;;6.32;2.42;;;37.90;65.40;;;;;;5011854;28;20218;-64
2022/07/18 10:20:41;;;;;;;4.32;2.40;;;38.30;68.60;;;;;;5012467;28;20203;-65
2022/07/18 10:23:21;;;;;;;2.78;2.30;;;38.30;60.20;;;;;;5016179;28;20206;-63
2022/07/18 10:26:05;;;;;;;3.65;2.50;;;38.20;56.90;;;;;;5031550;28;20178;-65
2022/07/18 10:28:31;;;;;;;2.70;2.50;;;37.80;64.60;;;;;;5035203;28;20195;-65
2022/07/18 10:31:14;;;;;;;2.78;2.30;;;37.90;63.40;;;;;;5034257;28;20210;-65
2022/07/18 10:33:41;;;;;;;2.63;2.42;;;38.30;62.70;;;;;;5030391;28;20244;-65
2022/07/18 10:36:10;;;;;;;3.10;2.50;;;38.50;59.10;;;;;;5035071;28;20175;-65
2022/07/18 10:38:36;;;;;;;4.15;2.67;;;38.50;58.40;;;;;;5061896;22;20227;-68
2022/07/18 10:41:02;;;;;;;3.22;2.50;;;38.30;56.70;;;;;;5050903;28;20211;-67
2022/07/18 10:43:30;;;;;;;6.40;2.40;;;38.00;58.00;;;;;;5050966;28;20171;-68
2022/07/18 10:45:57;;;;;;;8.35;2.60;;;37.60;57.20;;;;;;5050617;28;20665;-68
2022/07/18 10:48:37;;;;;;;3.88;2.35;;;37.70;59.90;;;;;;5051285;28;20195;-67
2022/07/18 10:51:09;;;;;;;5.38;2.80;;;37.90;57.70;;;;;;5038887;28;20187;-68
2022/07/18 10:53:57;;;;;;;3.53;2.40;;;38.20;62.10;;;;;;5030981;28;20176;-68
2022/07/18 10:56:28;;;;;;;3.35;2.30;;;38.30;58.50;;;;;;5031864;28;20554;-68
2022/07/18 10:58:58;;;;;;;5.38;2.53;;;38.60;59.10;;;;;;5047146;28;20194;-68
2022/07/18 11:01:25;;;;;;;2.75;2.42;;;38.70;56.00;;;;;;5054935;28;20209;-68
2022/07/18 11:04:23;;;;;;;3.25;2.50;;;38.80;55.40;;;;;;5052657;28;20179;-67
2022/07/18 11:07:13;;;;;;;3.20;2.70;;;38.30;58.60;;;;;;5054700;28;20170;-68
2022/07/18 11:09:43;;;;;;;3.35;2.47;;;38.50;56.60;;;;;;5037165;28;20218;-68
2022/07/18 11:12:25;;;;;;;3.90;2.45;;;38.60;54.90;;;;;;5034782;28;20236;-68
2022/07/18 11:15:05;;;;;;;3.75;2.25;;;38.70;55.50;;;;;;5052906;28;20642;-68
2022/07/18 11:17:56;;;;;;;2.35;2.20;;;38.60;52.40;;;;;;5054800;28;20261;-68
2022/07/18 11:20:40;;;;;;;4.15;3.15;;;38.40;53.10;;;;;;5014882;28;20235;-69
2022/07/18 11:23:41;;;;;;;2.40;2.20;;;38.20;53.70;;;;;;5027608;28;20183;-68
2022/07/18 11:26:14;;;;;;;2.60;2.33;;;38.00;51.20;;;;;;5050602;28;20197;-69
2022/07/18 11:28:41;;;;;;;2.72;2.33;;;38.10;54.60;;;;;;5043071;28;20199;-69
2022/07/18 11:31:11;;;;;;;3.10;2.30;;;38.40;51.40;;;;;;5034609;28;20192;-69
2022/07/18 11:33:44;;;;;;;3.67;2.70;;;38.50;51.80;;;;;;5044091;28;20218;-69
2022/07/18 11:36:15;;;;;;;3.75;2.63;;;38.70;54.30;;;;;;5054317;28;20185;-69
2022/07/18 11:38:48;;;;;;;3.97;2.40;;;38.90;50.70;;;;;;5043959;28;20226;-68
2022/07/18 11:41:14;;;;;;;3.03;2.83;;;39.10;52.70;;;;;;5034637;28;20282;-68
2022/07/18 11:43:42;;;;;;;9.73;2.78;;;39.00;49.80;;;;;;5042171;28;20185;-68
2022/07/18 11:46:11;;;;;;;3.53;2.55;;;38.70;49.80;;;;;;5052768;28;20217;-68
2022/07/18 11:48:38;;;;;;;3.90;2.63;;;38.70;50.30;;;;;;5043981;28;20203;-68
2022/07/18 11:51:20;;;;;;;2.80;2.30;;;38.70;50.10;;;;;;5034047;28;20172;-68
2022/07/18 11:53:51;;;;;;;3.80;2.63;;;38.30;49.80;;;;;;5041175;28;20644;-68
2022/07/18 11:56:18;;;;;;;5.28;2.53;;;38.40;51.80;;;;;;5046288;28;20171;-68
2022/07/18 11:58:46;;;;;;;2.90;2.45;;;38.40;48.30;;;;;;5034250;28;20606;-68
2022/07/18 12:01:12;;;;;;;2.50;2.30;;;38.70;48.90;;;;;;5040284;28;20198;-68
2022/07/18 12:03:43;;;;;;;3.35;2.40;;;38.80;50.90;;;;;;5053915;28;20171;-68
2022/07/18 12:06:15;;;;;;;4.38;3.17;;;38.80;47.80;;;;;;5048011;28;20168;-68
2022/07/18 12:08:46;;;;;;;4.57;2.47;;;38.40;51.40;;;;;;5032675;28;20257;-68
2022/07/18 12:11:25;;;;;;;3.88;2.70;;;37.80;48.10;;;;;;5042558;28;20178;-68
2022/07/18 12:14:13;;;;;;;3.03;2.70;;;37.80;53.00;;;;;;5031713;28;20595;-68
2022/07/18 12:16:42;;;;;;;2.70;2.50;;;37.80;48.30;;;;;;5033787;28;20182;-68
2022/07/18 12:19:18;;;;;;;3.30;2.70;;;37.50;48.00;;;;;;5033606;28;20187;-68
2022/07/18 12:21:45;;;;;;;4.90;2.60;;;37.40;53.40;;;;;;5032624;28;20232;-68
2022/07/18 12:24:17;;;;;;;6.03;2.83;;;37.40;48.10;;;;;;5033248;28;20226;-68
2022/07/18 12:26:43;;;;;;;5.43;2.42;;;37.60;49.60;;;;;;5033386;28;20218;-68
2022/07/18 12:29:09;;;;;;;2.90;2.53;;;37.90;50.30;;;;;;5032174;28;20637;-69
2022/07/18 12:31:40;;;;;;;3.28;2.42;;;38.40;49.80;;;;;;5033464;28;20175;-69
2022/07/18 12:34:16;;;;;;;5.75;2.60;;;38.50;47.20;;;;;;5033273;28;20175;-69
2022/07/18 12:36:53;;;;;;;6.05;3.03;;;38.00;47.40;;;;;;5033358;28;20258;-69
2022/07/18 12:39:32;;;;;;;2.92;2.67;;;37.70;46.60;;;;;;5033235;28;20213;-69
2022/07/18 12:41:59;;;;;;;3.15;2.60;;;37.00;48.80;;;;;;5030073;28;20209;-69
2022/07/18 12:44:26;;;;;;;2.92;2.55;;;36.80;49.20;;;;;;5031924;28;20711;-69
2022/07/18 12:46:53;;;;;;;3.92;2.67;;;36.80;48.40;;;;;;5032996;28;20172;-69
2022/07/18 12:49:19;;;;;;;6.13;2.67;;;36.70;48.30;;;;;;5033038;28;20245;-68
2022/07/18 12:51:44;;;;;;;4.60;2.80;;;37.00;50.20;;;;;;5025486;28;20188;-68
2022/07/18 12:54:10;;;;;;;3.35;2.33;;;37.20;49.60;;;;;;5013055;28;20526;-69